Grafton, Massachusetts
Current Conditions -  °F | °C
As of 6:54 AM on Friday 28 Nov 2014 (Local Time) from KORH Reporting Station
Overcast Overcast  
Wind Chill: 14°   Ceiling: 7000
Heat Index: 25°   Visibility: 10mi
Dew Point: 21°   Wind: 13mph
Humidity: 85%   Direction: 320°NW
Pressure: 29.99"   Gusts: NA
Location:  42.21°N, 71.69°W
Report Text: KORH 281154Z 32011KT 10SM OVC070 M04/M06 A2999 RMK AO2 SLP171 60000 70001 T10391061 11033 21039 53010
Loading
Personal Weather Stations






























Interactive Weather Map New forecast layout! Learn more

10-Day Weather Forecast

Advertisements
Track Severe Weather on mobile